sensor_id;sensor_type;location;lat;lon;timestamp;P1;durP1;ratioP1;P2;durP2;ratioP2
1164;SDS011;571;50.930;6.926;2023-02-17T03:45:24;7.10;;;6.40;;
1164;SDS011;571;50.930;6.926;2023-02-17T03:47:53;6.60;;;6.03;;
1164;SDS011;571;50.930;6.926;2023-02-17T03:50:20;6.27;;;5.67;;
1164;SDS011;571;50.930;6.926;2023-02-17T03:52:50;7.27;;;5.93;;
1164;SDS011;571;50.930;6.926;2023-02-17T03:55:17;7.00;;;6.30;;
1164;SDS011;571;50.930;6.926;2023-02-17T03:57:44;7.60;;;6.90;;
1164;SDS011;571;50.930;6.926;2023-02-17T04:00:12;7.70;;;7.00;;
1164;SDS011;571;50.930;6.926;2023-02-17T04:02:46;6.87;;;6.20;;
1164;SDS011;571;50.930;6.926;2023-02-17T04:05:15;8.03;;;6.33;;
1164;SDS011;571;50.930;6.926;2023-02-17T04:07:45;6.63;;;5.70;;
1164;SDS011;571;50.930;6.926;2023-02-17T04:10:16;7.47;;;6.70;;
1164;SDS011;571;50.930;6.926;2023-02-17T04:12:48;6.43;;;5.17;;
1164;SDS011;571;50.930;6.926;2023-02-17T04:15:19;6.33;;;5.73;;
1164;SDS011;571;50.930;6.926;2023-02-17T04:17:50;7.03;;;6.43;;
1164;SDS011;571;50.930;6.926;2023-02-17T04:20:17;6.10;;;5.33;;
1164;SDS011;571;50.930;6.926;2023-02-17T04:22:56;6.50;;;5.50;;
1164;SDS011;571;50.930;6.926;2023-02-17T04:25:37;6.40;;;5.20;;
1164;SDS011;571;50.930;6.926;2023-02-17T04:28:10;7.60;;;6.73;;
1164;SDS011;571;50.930;6.926;2023-02-17T04:30:45;6.13;;;5.53;;
1164;SDS011;571;50.930;6.926;2023-02-17T04:33:16;8.10;;;7.33;;
1164;SDS011;571;50.930;6.926;2023-02-17T04:35:46;6.13;;;5.43;;
1164;SDS011;571;50.930;6.926;2023-02-17T04:38:23;5.43;;;4.93;;
1164;SDS011;571;50.930;6.926;2023-02-17T04:41:06;5.20;;;4.70;;
1164;SDS011;571;50.930;6.926;2023-02-17T04:43:33;7.23;;;6.43;;
1164;SDS011;571;50.930;6.926;2023-02-17T04:46:04;6.10;;;4.80;;
1164;SDS011;571;50.930;6.926;2023-02-17T04:48:36;5.70;;;5.20;;
1164;SDS011;571;50.930;6.926;2023-02-17T04:51:06;7.13;;;5.77;;
1164;SDS011;571;50.930;6.926;2023-02-17T04:53:35;9.20;;;6.27;;
1164;SDS011;571;50.930;6.926;2023-02-17T04:56:07;6.10;;;5.43;;
1164;SDS011;571;50.930;6.926;2023-02-17T04:58:42;7.03;;;6.43;;
1164;SDS011;571;50.930;6.926;2023-02-17T05:01:09;5.30;;;4.60;;
1164;SDS011;571;50.930;6.926;2023-02-17T05:03:40;5.93;;;5.37;;
1164;SDS011;571;50.930;6.926;2023-02-17T05:06:07;6.13;;;5.53;;
1164;SDS011;571;50.930;6.926;2023-02-17T05:08:33;6.93;;;6.23;;
1164;SDS011;571;50.930;6.926;2023-02-17T05:11:03;5.70;;;4.40;;
1164;SDS011;571;50.930;6.926;2023-02-17T05:13:39;6.17;;;5.57;;
1164;SDS011;571;50.930;6.926;2023-02-17T05:16:08;5.93;;;5.00;;
1164;SDS011;571;50.930;6.926;2023-02-17T05:18:34;6.00;;;4.40;;
1164;SDS011;571;50.930;6.926;2023-02-17T05:21:05;5.90;;;4.77;;
1164;SDS011;571;50.930;6.926;2023-02-17T05:23:32;7.67;;;5.60;;
1164;SDS011;571;50.930;6.926;2023-02-17T05:26:05;5.37;;;4.87;;
1164;SDS011;571;50.930;6.926;2023-02-17T05:28:33;5.97;;;4.83;;
1164;SDS011;571;50.930;6.926;2023-02-17T05:31:00;4.60;;;4.20;;
1164;SDS011;571;50.930;6.926;2023-02-17T05:33:31;6.27;;;5.43;;
1164;SDS011;571;50.930;6.926;2023-02-17T05:36:01;5.83;;;5.23;;
1164;SDS011;571;50.930;6.926;2023-02-17T06:37:12;5.77;;;4.27;;
1164;SDS011;571;50.930;6.926;2023-02-17T06:39:53;5.60;;;4.70;;
1164;SDS011;571;50.930;6.926;2023-02-17T06:42:41;5.00;;;4.50;;
1164;SDS011;571;50.930;6.926;2023-02-17T06:45:40;4.97;;;4.20;;
1164;SDS011;571;50.930;6.926;2023-02-17T06:48:13;4.10;;;3.63;;
1164;SDS011;571;50.930;6.926;2023-02-17T06:50:53;6.20;;;5.20;;
1164;SDS011;571;50.930;6.926;2023-02-17T06:56:43;10.00;;;4.73;;
1164;SDS011;571;50.930;6.926;2023-02-17T06:59:24;4.77;;;4.30;;
1164;SDS011;571;50.930;6.926;2023-02-17T07:01:51;5.20;;;4.60;;
1164;SDS011;571;50.930;6.926;2023-02-17T07:04:33;5.73;;;4.67;;
1164;SDS011;571;50.930;6.926;2023-02-17T07:07:53;5.10;;;4.20;;
1164;SDS011;571;50.930;6.926;2023-02-17T07:14:05;5.47;;;4.20;;
1164;SDS011;571;50.930;6.926;2023-02-17T07:16:43;3.60;;;3.30;;
1164;SDS011;571;50.930;6.926;2023-02-17T07:19:28;4.83;;;4.43;;
1164;SDS011;571;50.930;6.926;2023-02-17T07:22:16;4.73;;;4.00;;
1164;SDS011;571;50.930;6.926;2023-02-17T07:25:03;5.57;;;4.37;;
1164;SDS011;571;50.930;6.926;2023-02-17T07:27:48;4.83;;;4.00;;
1164;SDS011;571;50.930;6.926;2023-02-17T07:30:28;5.63;;;5.00;;
1164;SDS011;571;50.930;6.926;2023-02-17T07:33:12;4.20;;;3.80;;
1164;SDS011;571;50.930;6.926;2023-02-17T07:36:08;4.30;;;3.90;;
1164;SDS011;571;50.930;6.926;2023-02-17T07:38:39;5.30;;;4.43;;
1164;SDS011;571;50.930;6.926;2023-02-17T07:41:13;5.20;;;4.60;;
1164;SDS011;571;50.930;6.926;2023-02-17T07:43:42;6.00;;;5.40;;
1164;SDS011;571;50.930;6.926;2023-02-17T07:46:14;6.27;;;4.97;;
1164;SDS011;571;50.930;6.926;2023-02-17T07:48:48;5.00;;;4.50;;
1164;SDS011;571;50.930;6.926;2023-02-17T07:51:16;4.70;;;4.20;;
1164;SDS011;571;50.930;6.926;2023-02-17T07:53:47;6.93;;;5.37;;
1164;SDS011;571;50.930;6.926;2023-02-17T07:56:20;4.57;;;4.00;;
1164;SDS011;571;50.930;6.926;2023-02-17T07:58:55;5.47;;;4.93;;
1164;SDS011;571;50.930;6.926;2023-02-17T08:05:09;4.97;;;3.90;;
1164;SDS011;571;50.930;6.926;2023-02-17T08:07:49;5.77;;;3.97;;
1164;SDS011;571;50.930;6.926;2023-02-17T08:14:08;5.90;;;3.20;;
1164;SDS011;571;50.930;6.926;2023-02-17T08:16:49;4.47;;;4.07;;
1164;SDS011;571;50.930;6.926;2023-02-17T08:19:32;5.23;;;4.20;;
1164;SDS011;571;50.930;6.926;2023-02-17T08:22:11;5.40;;;4.40;;
1164;SDS011;571;50.930;6.926;2023-02-17T08:24:59;5.60;;;3.83;;
1164;SDS011;571;50.930;6.926;2023-02-17T08:27:46;5.40;;;4.20;;
1164;SDS011;571;50.930;6.926;2023-02-17T08:30:23;5.17;;;4.53;;
1164;SDS011;571;50.930;6.926;2023-02-17T08:32:57;4.93;;;3.27;;
1164;SDS011;571;50.930;6.926;2023-02-17T08:35:37;5.90;;;3.90;;
1164;SDS011;571;50.930;6.926;2023-02-17T08:38:23;2.77;;;2.57;;
1164;SDS011;571;50.930;6.926;2023-02-17T08:41:16;4.33;;;3.53;;
1164;SDS011;571;50.930;6.926;2023-02-17T08:43:55;4.50;;;4.03;;
1164;SDS011;571;50.930;6.926;2023-02-17T08:49:38;4.53;;;3.50;;
1164;SDS011;571;50.930;6.926;2023-02-17T08:54:50;10.03;;;3.43;;
1164;SDS011;571;50.930;6.926;2023-02-17T09:01:13;3.13;;;2.60;;
1164;SDS011;571;50.930;6.926;2023-02-17T09:04:07;4.77;;;3.63;;
1164;SDS011;571;50.930;6.926;2023-02-17T09:13:13;4.10;;;3.40;;
1164;SDS011;571;50.930;6.926;2023-02-17T09:15:53;3.43;;;3.00;;
1164;SDS011;571;50.930;6.926;2023-02-17T09:18:23;3.27;;;2.97;;
1164;SDS011;571;50.930;6.926;2023-02-17T09:23:50;4.27;;;3.33;;
1164;SDS011;571;50.930;6.926;2023-02-17T09:26:23;3.50;;;2.87;;
1164;SDS011;571;50.930;6.926;2023-02-17T09:30:28;3.93;;;2.33;;
1164;SDS011;571;50.930;6.926;2023-02-17T09:35:26;3.67;;;2.57;;
1164;SDS011;571;50.930;6.926;2023-02-17T09:38:31;4.73;;;3.10;;
1164;SDS011;571;50.930;6.926;2023-02-17T09:41:03;3.27;;;2.47;;
1164;SDS011;571;50.930;6.926;2023-02-17T09:43:45;3.30;;;2.50;;
1164;SDS011;571;50.930;6.926;2023-02-17T09:46:30;2.67;;;2.47;;
1164;SDS011;571;50.930;6.926;2023-02-17T09:49:50;2.27;;;1.93;;
1164;SDS011;571;50.930;6.926;2023-02-17T09:52:27;2.60;;;2.37;;
1164;SDS011;571;50.930;6.926;2023-02-17T09:55:06;3.13;;;2.80;;
1164;SDS011;571;50.930;6.926;2023-02-17T10:01:03;2.17;;;1.87;;
1164;SDS011;571;50.930;6.926;2023-02-17T10:03:35;3.00;;;2.80;;
1164;SDS011;571;50.930;6.926;2023-02-17T10:06:09;2.33;;;2.03;;
1164;SDS011;571;50.930;6.926;2023-02-17T10:08:41;2.77;;;2.53;;
1164;SDS011;571;50.930;6.926;2023-02-17T10:11:15;7.30;;;2.93;;
1164;SDS011;571;50.930;6.926;2023-02-17T10:13:48;4.23;;;2.03;;
1164;SDS011;571;50.930;6.926;2023-02-17T10:16:19;3.07;;;2.30;;
1164;SDS011;571;50.930;6.926;2023-02-17T10:18:49;2.37;;;2.17;;
1164;SDS011;571;50.930;6.926;2023-02-17T10:21:24;2.60;;;2.40;;
1164;SDS011;571;50.930;6.926;2023-02-17T10:23:54;2.10;;;1.90;;
1164;SDS011;571;50.930;6.926;2023-02-17T10:26:25;1.57;;;1.40;;
1164;SDS011;571;50.930;6.926;2023-02-17T10:29:19;2.17;;;1.83;;
1164;SDS011;571;50.930;6.926;2023-02-17T10:32:00;4.63;;;1.87;;
1164;SDS011;571;50.930;6.926;2023-02-17T10:34:40;2.20;;;2.00;;
1164;SDS011;571;50.930;6.926;2023-02-17T10:37:18;2.03;;;1.27;;
1164;SDS011;571;50.930;6.926;2023-02-17T10:39:50;3.87;;;2.23;;
1164;SDS011;571;50.930;6.926;2023-02-17T10:42:23;2.37;;;1.80;;
1164;SDS011;571;50.930;6.926;2023-02-17T10:44:55;1.77;;;1.67;;
1164;SDS011;571;50.930;6.926;2023-02-17T10:47:26;3.17;;;2.27;;
1164;SDS011;571;50.930;6.926;2023-02-17T10:49:53;3.60;;;1.60;;
1164;SDS011;571;50.930;6.926;2023-02-17T10:52:26;3.83;;;2.03;;
1164;SDS011;571;50.930;6.926;2023-02-17T10:54:59;1.43;;;1.20;;
1164;SDS011;571;50.930;6.926;2023-02-17T10:57:33;3.60;;;2.03;;
1164;SDS011;571;50.930;6.926;2023-02-17T11:00:03;1.33;;;1.03;;
1164;SDS011;571;50.930;6.926;2023-02-17T11:02:33;1.40;;;1.30;;
1164;SDS011;571;50.930;6.926;2023-02-17T11:05:02;1.20;;;1.03;;
1164;SDS011;571;50.930;6.926;2023-02-17T11:07:30;2.93;;;2.13;;
1164;SDS011;571;50.930;6.926;2023-02-17T11:09:59;2.80;;;1.67;;
1164;SDS011;571;50.930;6.926;2023-02-17T11:12:28;1.50;;;1.13;;
1164;SDS011;571;50.930;6.926;2023-02-17T11:15:07;1.87;;;1.50;;
1164;SDS011;571;50.930;6.926;2023-02-17T11:17:42;2.73;;;1.13;;
1164;SDS011;571;50.930;6.926;2023-02-17T11:23:03;2.63;;;1.27;;
1164;SDS011;571;50.930;6.926;2023-02-17T11:25:34;1.40;;;1.20;;
1164;SDS011;571;50.930;6.926;2023-02-17T11:28:10;2.70;;;2.33;;
1164;SDS011;571;50.930;6.926;2023-02-17T11:30:38;1.90;;;1.27;;
1164;SDS011;571;50.930;6.926;2023-02-17T11:33:14;5.30;;;1.83;;
1164;SDS011;571;50.930;6.926;2023-02-17T11:35:53;1.97;;;1.40;;
1164;SDS011;571;50.930;6.926;2023-02-17T11:38:22;3.40;;;2.03;;
1164;SDS011;571;50.930;6.926;2023-02-17T11:40:51;2.10;;;1.50;;
1164;SDS011;571;50.930;6.926;2023-02-17T11:43:21;1.60;;;1.47;;
1164;SDS011;571;50.930;6.926;2023-02-17T11:45:52;2.10;;;1.23;;
1164;SDS011;571;50.930;6.926;2023-02-17T11:51:50;4.00;;;1.60;;
1164;SDS011;571;50.930;6.926;2023-02-17T11:54:29;2.27;;;1.33;;
1164;SDS011;571;50.930;6.926;2023-02-17T11:57:05;1.80;;;1.50;;
1164;SDS011;571;50.930;6.926;2023-02-17T11:59:54;2.60;;;2.00;;
1164;SDS011;571;50.930;6.926;2023-02-17T12:02:43;2.73;;;1.07;;
1164;SDS011;571;50.930;6.926;2023-02-17T12:05:48;5.47;;;1.50;;
1164;SDS011;571;50.930;6.926;2023-02-17T12:08:21;1.30;;;1.00;;
1164;SDS011;571;50.930;6.926;2023-02-17T12:10:56;7.00;;;1.60;;
1164;SDS011;571;50.930;6.926;2023-02-17T12:13:33;2.77;;;1.30;;
1164;SDS011;571;50.930;6.926;2023-02-17T12:16:13;2.23;;;1.70;;
1164;SDS011;571;50.930;6.926;2023-02-17T12:18:52;4.67;;;1.70;;
1164;SDS011;571;50.930;6.926;2023-02-17T12:24:27;2.77;;;1.67;;
1164;SDS011;571;50.930;6.926;2023-02-17T12:27:04;2.30;;;1.40;;
1164;SDS011;571;50.930;6.926;2023-02-17T12:29:42;1.57;;;0.73;;
1164;SDS011;571;50.930;6.926;2023-02-17T12:32:41;3.90;;;1.40;;
1164;SDS011;571;50.930;6.926;2023-02-17T12:35:18;2.40;;;1.80;;
1164;SDS011;571;50.930;6.926;2023-02-17T12:37:49;2.17;;;1.20;;
1164;SDS011;571;50.930;6.926;2023-02-17T12:40:24;1.37;;;1.17;;
1164;SDS011;571;50.930;6.926;2023-02-17T12:42:59;1.67;;;1.40;;
1164;SDS011;571;50.930;6.926;2023-02-17T12:45:33;2.43;;;1.67;;
1164;SDS011;571;50.930;6.926;2023-02-17T12:48:09;5.43;;;1.23;;
1164;SDS011;571;50.930;6.926;2023-02-17T12:50:46;1.57;;;1.10;;
1164;SDS011;571;50.930;6.926;2023-02-17T12:53:21;2.70;;;1.57;;
1164;SDS011;571;50.930;6.926;2023-02-17T12:56:00;2.43;;;1.20;;
1164;SDS011;571;50.930;6.926;2023-02-17T12:58:30;2.83;;;1.03;;
1164;SDS011;571;50.930;6.926;2023-02-17T13:01:01;2.20;;;1.20;;
1164;SDS011;571;50.930;6.926;2023-02-17T13:03:34;4.77;;;1.37;;
1164;SDS011;571;50.930;6.926;2023-02-17T13:06:03;2.23;;;1.50;;
1164;SDS011;571;50.930;6.926;2023-02-17T13:08:41;5.00;;;1.77;;
1164;SDS011;571;50.930;6.926;2023-02-17T13:11:13;2.17;;;1.47;;
1164;SDS011;571;50.930;6.926;2023-02-17T13:13:51;5.17;;;1.67;;
1164;SDS011;571;50.930;6.926;2023-02-17T13:16:18;8.13;;;2.17;;
1164;SDS011;571;50.930;6.926;2023-02-17T13:18:47;5.53;;;2.27;;
1164;SDS011;571;50.930;6.926;2023-02-17T13:21:16;15.57;;;2.87;;
1164;SDS011;571;50.930;6.926;2023-02-17T13:23:57;7.77;;;2.17;;
1164;SDS011;571;50.930;6.926;2023-02-17T13:26:27;9.60;;;2.80;;
1164;SDS011;571;50.930;6.926;2023-02-17T13:29:09;2.63;;;1.87;;
1164;SDS011;571;50.930;6.926;2023-02-17T13:31:45;2.30;;;1.47;;
1164;SDS011;571;50.930;6.926;2023-02-17T13:34:24;7.00;;;2.00;;
1164;SDS011;571;50.930;6.926;2023-02-17T13:36:52;17.23;;;2.70;;
1164;SDS011;571;50.930;6.926;2023-02-17T13:39:30;11.67;;;2.10;;
1164;SDS011;571;50.930;6.926;2023-02-17T13:41:59;16.40;;;2.37;;
1164;SDS011;571;50.930;6.926;2023-02-17T13:44:27;17.03;;;2.23;;
1164;SDS011;571;50.930;6.926;2023-02-17T13:46:56;13.67;;;2.43;;
1164;SDS011;571;50.930;6.926;2023-02-17T13:49:27;4.20;;;1.63;;
1164;SDS011;571;50.930;6.926;2023-02-17T13:52:05;12.73;;;2.93;;
1164;SDS011;571;50.930;6.926;2023-02-17T13:54:49;9.40;;;2.70;;
1164;SDS011;571;50.930;6.926;2023-02-17T13:57:21;7.37;;;1.90;;
1164;SDS011;571;50.930;6.926;2023-02-17T13:59:49;12.23;;;3.37;;
1164;SDS011;571;50.930;6.926;2023-02-17T14:02:16;14.07;;;2.47;;
1164;SDS011;571;50.930;6.926;2023-02-17T14:04:46;12.30;;;3.37;;
1164;SDS011;571;50.930;6.926;2023-02-17T14:07:13;5.43;;;2.13;;
1164;SDS011;571;50.930;6.926;2023-02-17T14:09:39;4.30;;;1.97;;
1164;SDS011;571;50.930;6.926;2023-02-17T14:12:14;1.50;;;1.07;;
1164;SDS011;571;50.930;6.926;2023-02-17T14:14:47;8.60;;;2.93;;
1164;SDS011;571;50.930;6.926;2023-02-17T14:17:26;9.00;;;2.70;;
1164;SDS011;571;50.930;6.926;2023-02-17T14:19:55;16.10;;;3.13;;
1164;SDS011;571;50.930;6.926;2023-02-17T14:22:23;10.13;;;3.10;;
1164;SDS011;571;50.930;6.926;2023-02-17T14:24:56;4.60;;;1.47;;
1164;SDS011;571;50.930;6.926;2023-02-17T14:27:25;11.77;;;3.10;;
1164;SDS011;571;50.930;6.926;2023-02-17T14:29:52;6.50;;;3.00;;
1164;SDS011;571;50.930;6.926;2023-02-17T14:32:25;7.90;;;2.50;;
1164;SDS011;571;50.930;6.926;2023-02-17T14:35:18;13.13;;;2.83;;
1164;SDS011;571;50.930;6.926;2023-02-17T14:37:47;7.30;;;3.20;;
1164;SDS011;571;50.930;6.926;2023-02-17T14:40:15;7.33;;;3.00;;
1164;SDS011;571;50.930;6.926;2023-02-17T14:42:43;25.87;;;4.40;;
1164;SDS011;571;50.930;6.926;2023-02-17T14:45:14;8.50;;;2.93;;
1164;SDS011;571;50.930;6.926;2023-02-17T14:47:42;7.80;;;2.90;;
1164;SDS011;571;50.930;6.926;2023-02-17T14:50:12;7.10;;;3.60;;
1164;SDS011;571;50.930;6.926;2023-02-17T14:52:42;8.00;;;2.13;;
1164;SDS011;571;50.930;6.926;2023-02-17T14:55:12;6.03;;;2.90;;
1164;SDS011;571;50.930;6.926;2023-02-17T14:57:43;2.67;;;2.10;;
1164;SDS011;571;50.930;6.926;2023-02-17T15:00:12;8.00;;;2.63;;
1164;SDS011;571;50.930;6.926;2023-02-17T15:02:40;8.83;;;2.50;;
1164;SDS011;571;50.930;6.926;2023-02-17T15:05:07;9.60;;;2.90;;
1164;SDS011;571;50.930;6.926;2023-02-17T15:07:35;9.60;;;2.60;;
1164;SDS011;571;50.930;6.926;2023-02-17T15:10:05;7.30;;;2.30;;
1164;SDS011;571;50.930;6.926;2023-02-17T15:12:39;6.10;;;2.47;;
1164;SDS011;571;50.930;6.926;2023-02-17T15:15:08;6.07;;;2.83;;
1164;SDS011;571;50.930;6.926;2023-02-17T15:17:38;9.27;;;2.47;;
1164;SDS011;571;50.930;6.926;2023-02-17T15:20:05;3.57;;;1.63;;
1164;SDS011;571;50.930;6.926;2023-02-17T15:22:35;6.50;;;1.83;;
1164;SDS011;571;50.930;6.926;2023-02-17T15:25:08;5.13;;;1.80;;
1164;SDS011;571;50.930;6.926;2023-02-17T15:27:38;4.53;;;1.50;;
1164;SDS011;571;50.930;6.926;2023-02-17T15:30:05;7.33;;;1.80;;
1164;SDS011;571;50.930;6.926;2023-02-17T15:32:36;4.00;;;2.00;;
1164;SDS011;571;50.930;6.926;2023-02-17T15:35:07;4.50;;;2.33;;
1164;SDS011;571;50.930;6.926;2023-02-17T15:37:41;4.03;;;2.40;;
1164;SDS011;571;50.930;6.926;2023-02-17T15:40:11;5.00;;;2.70;;
1164;SDS011;571;50.930;6.926;2023-02-17T15:42:39;4.60;;;2.77;;
1164;SDS011;571;50.930;6.926;2023-02-17T15:45:08;4.10;;;2.43;;
1164;SDS011;571;50.930;6.926;2023-02-17T15:47:44;6.23;;;2.10;;
1164;SDS011;571;50.930;6.926;2023-02-17T15:50:21;7.70;;;1.97;;
1164;SDS011;571;50.930;6.926;2023-02-17T15:53:02;2.93;;;2.03;;
1164;SDS011;571;50.930;6.926;2023-02-17T15:55:29;1.80;;;1.50;;
1164;SDS011;571;50.930;6.926;2023-02-17T15:57:56;2.00;;;1.60;;
1164;SDS011;571;50.930;6.926;2023-02-17T16:00:27;2.63;;;1.93;;
1164;SDS011;571;50.930;6.926;2023-02-17T16:02:57;1.60;;;1.17;;
1164;SDS011;571;50.930;6.926;2023-02-17T16:05:24;4.30;;;1.80;;
1164;SDS011;571;50.930;6.926;2023-02-17T16:07:53;1.43;;;1.33;;
1164;SDS011;571;50.930;6.926;2023-02-17T16:10:22;3.00;;;1.40;;
1164;SDS011;571;50.930;6.926;2023-02-17T16:12:51;1.90;;;1.77;;
1164;SDS011;571;50.930;6.926;2023-02-17T16:15:21;8.40;;;1.50;;
1164;SDS011;571;50.930;6.926;2023-02-17T16:17:49;2.97;;;1.50;;
1164;SDS011;571;50.930;6.926;2023-02-17T16:20:17;6.40;;;4.00;;
1164;SDS011;571;50.930;6.926;2023-02-17T16:22:45;2.07;;;1.30;;
1164;SDS011;571;50.930;6.926;2023-02-17T16:25:13;2.53;;;1.90;;
1164;SDS011;571;50.930;6.926;2023-02-17T16:27:43;2.37;;;1.83;;
1164;SDS011;571;50.930;6.926;2023-02-17T16:30:21;1.30;;;1.03;;
1164;SDS011;571;50.930;6.926;2023-02-17T16:32:50;3.50;;;1.97;;
1164;SDS011;571;50.930;6.926;2023-02-17T16:35:17;8.40;;;2.30;;
1164;SDS011;571;50.930;6.926;2023-02-17T16:37:48;1.60;;;1.50;;
1164;SDS011;571;50.930;6.926;2023-02-17T16:40:18;2.00;;;1.70;;
1164;SDS011;571;50.930;6.926;2023-02-17T16:42:48;3.20;;;2.27;;
1164;SDS011;571;50.930;6.926;2023-02-17T16:45:16;10.73;;;3.03;;
1164;SDS011;571;50.930;6.926;2023-02-17T16:47:46;5.20;;;2.00;;
1164;SDS011;571;50.930;6.926;2023-02-17T16:50:19;8.63;;;2.20;;
1164;SDS011;571;50.930;6.926;2023-02-17T16:52:49;2.70;;;2.27;;
1164;SDS011;571;50.930;6.926;2023-02-17T16:55:17;2.43;;;1.90;;
1164;SDS011;571;50.930;6.926;2023-02-17T16:57:45;4.30;;;2.07;;
1164;SDS011;571;50.930;6.926;2023-02-17T17:00:16;2.20;;;1.70;;
1164;SDS011;571;50.930;6.926;2023-02-17T17:02:52;2.73;;;2.10;;
1164;SDS011;571;50.930;6.926;2023-02-17T17:05:20;2.87;;;2.00;;
1164;SDS011;571;50.930;6.926;2023-02-17T17:07:47;1.67;;;1.40;;
1164;SDS011;571;50.930;6.926;2023-02-17T17:10:16;3.10;;;2.60;;
1164;SDS011;571;50.930;6.926;2023-02-17T17:12:44;2.70;;;2.50;;
1164;SDS011;571;50.930;6.926;2023-02-17T17:15:12;3.63;;;1.93;;
1164;SDS011;571;50.930;6.926;2023-02-17T17:17:42;3.63;;;2.20;;
1164;SDS011;571;50.930;6.926;2023-02-17T17:20:12;3.10;;;2.40;;
1164;SDS011;571;50.930;6.926;2023-02-17T17:22:40;2.20;;;2.00;;
1164;SDS011;571;50.930;6.926;2023-02-17T17:25:08;3.00;;;1.93;;
1164;SDS011;571;50.930;6.926;2023-02-17T17:27:35;3.73;;;2.37;;
1164;SDS011;571;50.930;6.926;2023-02-17T17:30:03;2.60;;;1.93;;
1164;SDS011;571;50.930;6.926;2023-02-17T17:32:31;2.30;;;1.40;;
1164;SDS011;571;50.930;6.926;2023-02-17T17:34:59;3.67;;;1.90;;
1164;SDS011;571;50.930;6.926;2023-02-17T17:37:26;1.67;;;1.57;;
1164;SDS011;571;50.930;6.926;2023-02-17T17:39:53;2.50;;;1.97;;
1164;SDS011;571;50.930;6.926;2023-02-17T17:42:23;2.90;;;2.00;;
1164;SDS011;571;50.930;6.926;2023-02-17T17:44:50;1.23;;;1.13;;
1164;SDS011;571;50.930;6.926;2023-02-17T17:47:17;1.97;;;1.80;;
1164;SDS011;571;50.930;6.926;2023-02-17T17:49:45;2.47;;;1.50;;
1164;SDS011;571;50.930;6.926;2023-02-17T17:52:13;2.83;;;1.60;;
1164;SDS011;571;50.930;6.926;2023-02-17T17:54:40;2.73;;;1.60;;
1164;SDS011;571;50.930;6.926;2023-02-17T17:57:07;2.03;;;1.83;;
1164;SDS011;571;50.930;6.926;2023-02-17T17:59:34;2.27;;;1.53;;
1164;SDS011;571;50.930;6.926;2023-02-17T18:02:01;7.53;;;2.17;;
1164;SDS011;571;50.930;6.926;2023-02-17T18:04:27;3.00;;;2.00;;
1164;SDS011;571;50.930;6.926;2023-02-17T18:06:54;3.67;;;2.07;;
1164;SDS011;571;50.930;6.926;2023-02-17T18:09:24;2.40;;;2.20;;
1164;SDS011;571;50.930;6.926;2023-02-17T18:11:53;2.80;;;2.50;;
1164;SDS011;571;50.930;6.926;2023-02-17T18:14:21;2.20;;;2.00;;
1164;SDS011;571;50.930;6.926;2023-02-17T18:16:48;2.60;;;2.37;;
1164;SDS011;571;50.930;6.926;2023-02-17T18:19:16;5.90;;;2.40;;
1164;SDS011;571;50.930;6.926;2023-02-17T18:21:44;3.63;;;2.60;;
1164;SDS011;571;50.930;6.926;2023-02-17T18:24:11;2.40;;;2.20;;
1164;SDS011;571;50.930;6.926;2023-02-17T18:26:40;2.73;;;2.50;;
1164;SDS011;571;50.930;6.926;2023-02-17T18:29:06;2.90;;;2.43;;
1164;SDS011;571;50.930;6.926;2023-02-17T18:31:33;3.93;;;2.90;;
1164;SDS011;571;50.930;6.926;2023-02-17T18:34:01;2.50;;;2.30;;
1164;SDS011;571;50.930;6.926;2023-02-17T18:36:28;4.97;;;3.30;;
1164;SDS011;571;50.930;6.926;2023-02-17T18:38:55;2.90;;;2.70;;
1164;SDS011;571;50.930;6.926;2023-02-17T18:41:25;2.77;;;2.50;;
1164;SDS011;571;50.930;6.926;2023-02-17T18:46:53;5.73;;;3.10;;
1164;SDS011;571;50.930;6.926;2023-02-17T18:49:43;3.00;;;2.80;;
1164;SDS011;571;50.930;6.926;2023-02-17T18:52:10;3.03;;;2.80;;
1164;SDS011;571;50.930;6.926;2023-02-17T18:54:39;3.10;;;2.90;;
1164;SDS011;571;50.930;6.926;2023-02-17T18:57:06;4.60;;;3.07;;
1164;SDS011;571;50.930;6.926;2023-02-17T18:59:35;3.27;;;2.83;;
1164;SDS011;571;50.930;6.926;2023-02-17T19:02:06;5.00;;;3.37;;
1164;SDS011;571;50.930;6.926;2023-02-17T19:04:54;2.97;;;2.57;;
1164;SDS011;571;50.930;6.926;2023-02-17T19:07:22;7.87;;;2.67;;
1164;SDS011;571;50.930;6.926;2023-02-17T19:09:49;3.97;;;3.43;;
1164;SDS011;571;50.930;6.926;2023-02-17T19:12:24;3.90;;;3.60;;
1164;SDS011;571;50.930;6.926;2023-02-17T19:14:54;4.20;;;3.57;;
1164;SDS011;571;50.930;6.926;2023-02-17T19:17:21;5.27;;;2.90;;
1164;SDS011;571;50.930;6.926;2023-02-17T19:19:49;3.37;;;2.90;;
1164;SDS011;571;50.930;6.926;2023-02-17T19:22:18;3.23;;;2.73;;
1164;SDS011;571;50.930;6.926;2023-02-17T19:25:28;5.00;;;2.97;;
1164;SDS011;571;50.930;6.926;2023-02-17T19:27:54;4.17;;;3.40;;
1164;SDS011;571;50.930;6.926;2023-02-17T19:30:23;3.10;;;2.80;;
1164;SDS011;571;50.930;6.926;2023-02-17T19:32:52;3.80;;;3.00;;
1164;SDS011;571;50.930;6.926;2023-02-17T19:35:54;5.40;;;3.10;;
1164;SDS011;571;50.930;6.926;2023-02-17T19:38:23;3.80;;;3.50;;
1164;SDS011;571;50.930;6.926;2023-02-17T19:40:54;3.57;;;3.27;;
1164;SDS011;571;50.930;6.926;2023-02-17T19:43:27;3.67;;;3.37;;
1164;SDS011;571;50.930;6.926;2023-02-17T19:46:25;4.50;;;4.10;;
1164;SDS011;571;50.930;6.926;2023-02-17T19:48:52;4.73;;;4.30;;
1164;SDS011;571;50.930;6.926;2023-02-17T19:51:19;3.70;;;2.83;;
1164;SDS011;571;50.930;6.926;2023-02-17T19:56:41;5.90;;;5.30;;
1164;SDS011;571;50.930;6.926;2023-02-17T19:59:08;4.33;;;3.93;;
1164;SDS011;571;50.930;6.926;2023-02-17T20:07:49;5.00;;;3.40;;
1164;SDS011;571;50.930;6.926;2023-02-17T20:13:32;5.37;;;4.87;;
1164;SDS011;571;50.930;6.926;2023-02-17T20:26:13;4.97;;;4.53;;
1164;SDS011;571;50.930;6.926;2023-02-17T20:28:46;5.30;;;4.80;;
1164;SDS011;571;50.930;6.926;2023-02-17T20:31:18;5.50;;;3.20;;
1164;SDS011;571;50.930;6.926;2023-02-17T20:33:49;3.73;;;3.30;;
1164;SDS011;571;50.930;6.926;2023-02-17T20:36:22;4.67;;;4.27;;
1164;SDS011;571;50.930;6.926;2023-02-17T20:39:11;7.17;;;5.20;;
1164;SDS011;571;50.930;6.926;2023-02-17T20:41:38;5.30;;;4.17;;
1164;SDS011;571;50.930;6.926;2023-02-17T20:44:14;7.27;;;4.70;;
1164;SDS011;571;50.930;6.926;2023-02-17T20:47:01;4.43;;;4.00;;
1164;SDS011;571;50.930;6.926;2023-02-17T20:57:46;5.07;;;4.03;;
1164;SDS011;571;50.930;6.926;2023-02-17T21:02:56;5.93;;;4.93;;
1164;SDS011;571;50.930;6.926;2023-02-17T21:05:28;8.40;;;6.77;;
1164;SDS011;571;50.930;6.926;2023-02-17T21:07:55;8.57;;;5.33;;
1164;SDS011;571;50.930;6.926;2023-02-17T21:10:25;7.70;;;5.97;;
1164;SDS011;571;50.930;6.926;2023-02-17T21:22:28;6.00;;;4.97;;
1164;SDS011;571;50.930;6.926;2023-02-17T21:25:04;5.40;;;4.87;;
1164;SDS011;571;50.930;6.926;2023-02-17T21:27:51;4.57;;;3.60;;
1164;SDS011;571;50.930;6.926;2023-02-17T21:30:26;8.83;;;5.40;;
1164;SDS011;571;50.930;6.926;2023-02-17T21:32:57;5.03;;;4.47;;
1164;SDS011;571;50.930;6.926;2023-02-17T21:35:30;3.50;;;3.20;;
1164;SDS011;571;50.930;6.926;2023-02-17T21:41:34;5.90;;;5.03;;
1164;SDS011;571;50.930;6.926;2023-02-17T21:44:37;6.37;;;4.97;;
1164;SDS011;571;50.930;6.926;2023-02-17T21:47:29;8.43;;;4.83;;
1164;SDS011;571;50.930;6.926;2023-02-17T21:50:20;3.20;;;2.90;;
1164;SDS011;571;50.930;6.926;2023-02-17T21:52:54;6.50;;;5.73;;
1164;SDS011;571;50.930;6.926;2023-02-17T21:55:24;5.00;;;4.37;;
1164;SDS011;571;50.930;6.926;2023-02-17T21:57:51;5.60;;;4.87;;
1164;SDS011;571;50.930;6.926;2023-02-17T22:00:18;5.40;;;4.80;;
1164;SDS011;571;50.930;6.926;2023-02-17T22:03:04;4.80;;;4.17;;
1164;SDS011;571;50.930;6.926;2023-02-17T22:06:22;3.97;;;3.60;;
1164;SDS011;571;50.930;6.926;2023-02-17T22:22:42;7.43;;;5.30;;
1164;SDS011;571;50.930;6.926;2023-02-17T22:25:13;5.87;;;5.37;;
1164;SDS011;571;50.930;6.926;2023-02-17T22:27:42;7.50;;;6.20;;
1164;SDS011;571;50.930;6.926;2023-02-17T22:30:14;8.17;;;6.33;;
1164;SDS011;571;50.930;6.926;2023-02-17T22:32:41;4.43;;;3.27;;
1164;SDS011;571;50.930;6.926;2023-02-17T22:35:08;7.90;;;6.47;;
1164;SDS011;571;50.930;6.926;2023-02-17T22:37:54;5.10;;;4.60;;
1164;SDS011;571;50.930;6.926;2023-02-17T22:41:10;8.37;;;5.17;;
1164;SDS011;571;50.930;6.926;2023-02-17T22:43:35;7.23;;;5.90;;
1164;SDS011;571;50.930;6.926;2023-02-17T22:46:12;7.33;;;6.43;;